Time;durP1;ratioP1;P1;durP2;ratioP2;P2;SDS_P1;SDS_P2;PMS_P1;PMS_P2;Temp;Humidity;BMP_temperature;BMP_pressure;BME280_temperature;BME280_humidity;BME280_pressure;Samples;Min_cycle;Max_cycle;Signal;HPM_P1;HPM_P2
2022/08/10 00:02:40;;;;;;;2.42;1.52;;;;;;;;;;5068842;28;20638;-76
2022/08/10 00:05:06;;;;;;;2.47;1.50;;;;;;;;;;5057162;28;20221;-78
2022/08/10 00:07:34;;;;;;;5.70;1.88;;;;;;;;;;5060342;28;20222;-77
2022/08/10 00:10:05;;;;;;;2.63;1.90;;;;;;;;;;5031731;28;20271;-76
2022/08/10 00:12:33;;;;;;;2.40;1.77;;;;;;;;;;5041597;28;20234;-76
2022/08/10 00:14:59;;;;;;;3.35;1.83;;;;;;;;;;5046874;28;20271;-77
2022/08/10 00:17:25;;;;;;;1.60;1.50;;;;;;;;;;5065934;28;20214;-76
2022/08/10 00:19:51;;;;;;;1.73;1.63;;;;;;;;;;5064586;28;20226;-76
2022/08/10 00:22:18;;;;;;;2.75;1.83;;;;;;;;;;5042687;28;20317;-76
2022/08/10 00:24:44;;;;;;;2.67;1.50;;;;;;;;;;5068243;28;20207;-76
2022/08/10 00:27:09;;;;;;;1.88;1.65;;;;;;;;;;5046397;28;20734;-76
2022/08/10 00:29:35;;;;;;;2.00;1.85;;;;;;;;;;5044054;28;20801;-77
2022/08/10 00:32:01;;;;;;;2.90;1.80;;;;;;;;;;5049400;28;20215;-77
2022/08/10 00:34:27;;;;;;;2.65;1.80;;;;;;;;;;5057376;28;20711;-76
2022/08/10 00:36:57;;;;;;;2.72;1.85;;;;;;;;;;5043321;28;20215;-77
2022/08/10 00:39:28;;;;;;;3.25;1.98;;;;;;;;;;5027952;28;20222;-76
2022/08/10 00:41:55;;;;;;;2.00;1.80;;;;;;;;;;5072986;28;20703;-77
2022/08/10 00:44:21;;;;;;;2.92;2.10;;;;;;;;;;5051158;28;20287;-77
2022/08/10 00:46:49;;;;;;;5.50;2.25;;;;;;;;;;5028369;28;20275;-76
2022/08/10 00:49:17;;;;;;;2.67;2.10;;;;;;;;;;5045178;28;20229;-77
2022/08/10 00:51:45;;;;;;;4.72;2.00;;;;;;;;;;5029658;28;20774;-76
2022/08/10 00:54:15;;;;;;;4.53;2.03;;;;;;;;;;5046133;28;20519;-77
2022/08/10 00:56:46;;;;;;;2.85;2.10;;;;;;;;;;5032304;28;20214;-76
2022/08/10 00:59:12;;;;;;;2.10;1.90;;;;;;;;;;5055744;28;20285;-76
2022/08/10 01:01:40;;;;;;;2.63;2.03;;;;;;;;;;5049137;28;20749;-76
2022/08/10 01:04:08;;;;;;;3.35;2.03;;;;;;;;;;5039264;28;20272;-76
2022/08/10 01:07:03;;;;;;;2.25;1.73;;;;;;;;;;5067955;28;20252;-77
2022/08/10 01:09:50;;;;;;;2.50;1.90;;;;;;;;;;5063631;28;20234;-76
2022/08/10 01:12:24;;;;;;;2.28;1.88;;;;;;;;;;5066053;28;20214;-76
2022/08/10 01:15:31;;;;;;;3.20;1.88;;;;;;;;;;5079626;28;20231;-77
2022/08/10 01:18:11;;;;;;;5.65;1.80;;;;;;;;;;5082948;28;20300;-77
2022/08/10 01:20:39;;;;;;;3.05;1.80;;;;;;;;;;5060107;28;20225;-76
2022/08/10 01:23:26;;;;;;;2.17;1.98;;;;;;;;;;5066191;28;20244;-76
2022/08/10 01:26:13;;;;;;;6.53;2.20;;;;;;;;;;5065929;28;20226;-76
2022/08/10 01:28:50;;;;;;;4.20;1.95;;;;;;;;;;5052571;28;20225;-76
2022/08/10 01:31:19;;;;;;;4.15;2.38;;;;;;;;;;5077675;28;20837;-76
2022/08/10 01:33:55;;;;;;;4.65;1.80;;;;;;;;;;5044879;28;20218;-76
2022/08/10 01:36:34;;;;;;;2.60;1.80;;;;;;;;;;5051670;28;20225;-76
2022/08/10 01:39:01;;;;;;;2.33;1.80;;;;;;;;;;5051738;28;20214;-77
2022/08/10 01:41:39;;;;;;;3.53;1.73;;;;;;;;;;5055952;28;20221;-76
2022/08/10 01:44:13;;;;;;;1.80;1.70;;;;;;;;;;5066499;28;20750;-76
2022/08/10 01:46:44;;;;;;;2.22;1.70;;;;;;;;;;5036620;28;20249;-77
2022/08/10 01:49:10;;;;;;;8.50;1.85;;;;;;;;;;5041676;28;20270;-77
2022/08/10 01:51:39;;;;;;;2.50;2.10;;;;;;;;;;5041696;28;20217;-76
2022/08/10 01:54:07;;;;;;;3.20;2.08;;;;;;;;;;5044529;28;20813;-76
2022/08/10 01:56:38;;;;;;;2.30;2.00;;;;;;;;;;5046217;28;20223;-77
2022/08/10 01:59:12;;;;;;;4.55;1.90;;;;;;;;;;5041159;28;20229;-76
2022/08/10 02:01:40;;;;;;;2.95;1.70;;;;;;;;;;5047190;28;20248;-76
2022/08/10 02:04:09;;;;;;;2.70;1.75;;;;;;;;;;5038523;28;20227;-77
2022/08/10 02:06:42;;;;;;;3.90;1.80;;;;;;;;;;5058139;28;20700;-77
2022/08/10 02:09:07;;;;;;;3.45;2.00;;;;;;;;;;5065160;28;20316;-77
2022/08/10 02:11:36;;;;;;;2.88;1.50;;;;;;;;;;5040272;28;20301;-76
2022/08/10 02:14:04;;;;;;;1.98;1.70;;;;;;;;;;5045394;28;20290;-77
2022/08/10 02:16:30;;;;;;;2.65;2.00;;;;;;;;;;5048884;28;20586;-77
2022/08/10 02:18:55;;;;;;;2.30;1.92;;;;;;;;;;5028638;28;20230;-77
2022/08/10 02:21:24;;;;;;;3.40;2.03;;;;;;;;;;5040614;28;20679;-76
2022/08/10 02:23:50;;;;;;;2.80;1.80;;;;;;;;;;5028320;28;20312;-76
2022/08/10 02:26:17;;;;;;;5.57;2.38;;;;;;;;;;5055686;28;20287;-76
2022/08/10 02:28:43;;;;;;;2.10;1.83;;;;;;;;;;5059579;28;20233;-77
2022/08/10 02:31:14;;;;;;;2.78;1.80;;;;;;;;;;5072856;28;20745;-77
2022/08/10 02:33:43;;;;;;;2.90;2.30;;;;;;;;;;5064716;28;20271;-76
2022/08/10 02:36:11;;;;;;;3.13;2.10;;;;;;;;;;5045411;28;20217;-76
2022/08/10 02:38:44;;;;;;;2.17;2.05;;;;;;;;;;5056015;28;20296;-77
2022/08/10 02:41:17;;;;;;;3.60;2.20;;;;;;;;;;5043206;28;20217;-77
2022/08/10 02:44:04;;;;;;;4.18;2.25;;;;;;;;;;5043290;28;20218;-77
2022/08/10 02:46:35;;;;;;;2.38;2.17;;;;;;;;;;5059846;28;20679;-76
2022/08/10 02:49:02;;;;;;;5.70;2.30;;;;;;;;;;5041661;28;20223;-77
2022/08/10 02:51:49;;;;;;;8.23;2.28;;;;;;;;;;5038918;28;20226;-76
2022/08/10 02:54:17;;;;;;;1.90;1.80;;;;;;;;;;5053673;28;20246;-76
2022/08/10 02:56:51;;;;;;;2.22;2.10;;;;;;;;;;5060655;28;20221;-77
2022/08/10 02:59:28;;;;;;;2.33;2.13;;;;;;;;;;5045931;28;20233;-77
2022/08/10 03:01:58;;;;;;;2.97;2.13;;;;;;;;;;5044685;28;20214;-77
2022/08/10 03:04:35;;;;;;;4.35;2.40;;;;;;;;;;5045313;28;20739;-77
2022/08/10 03:07:03;;;;;;;2.10;2.00;;;;;;;;;;5068782;28;20226;-77
2022/08/10 03:09:35;;;;;;;2.75;1.90;;;;;;;;;;5044758;28;20214;-77
2022/08/10 03:12:01;;;;;;;3.15;2.05;;;;;;;;;;5028753;28;20225;-77
2022/08/10 03:14:32;;;;;;;3.88;2.25;;;;;;;;;;5062093;28;20316;-76
2022/08/10 03:17:00;;;;;;;2.38;2.15;;;;;;;;;;5035066;28;20222;-77
2022/08/10 03:19:32;;;;;;;2.20;2.00;;;;;;;;;;5063951;28;20729;-77
2022/08/10 03:22:00;;;;;;;2.38;2.17;;;;;;;;;;5059559;28;20878;-77
2022/08/10 03:24:26;;;;;;;2.70;2.28;;;;;;;;;;5030280;28;20233;-77
2022/08/10 03:26:54;;;;;;;2.58;2.05;;;;;;;;;;5053444;28;20214;-77
2022/08/10 03:29:22;;;;;;;1.95;1.85;;;;;;;;;;5062697;28;20715;-77
2022/08/10 03:31:50;;;;;;;3.00;2.35;;;;;;;;;;5046908;28;20227;-76
2022/08/10 03:34:19;;;;;;;4.13;2.47;;;;;;;;;;5045777;28;20332;-77
2022/08/10 03:36:47;;;;;;;2.40;2.22;;;;;;;;;;5041446;28;20211;-76
2022/08/10 03:39:12;;;;;;;2.65;2.45;;;;;;;;;;5050320;28;20219;-77
2022/08/10 03:41:49;;;;;;;3.63;2.65;;;;;;;;;;5025081;28;20272;-76
2022/08/10 03:44:18;;;;;;;2.97;2.45;;;;;;;;;;5047831;28;20364;-77
2022/08/10 03:46:44;;;;;;;3.25;2.60;;;;;;;;;;5028348;28;20230;-76
2022/08/10 03:49:10;;;;;;;4.50;3.03;;;;;;;;;;5030180;28;20233;-77
2022/08/10 03:51:35;;;;;;;3.25;2.67;;;;;;;;;;5044617;28;20214;-77
2022/08/10 03:54:01;;;;;;;2.97;2.75;;;;;;;;;;5043774;28;20262;-76
2022/08/10 03:56:29;;;;;;;3.58;2.70;;;;;;;;;;5040901;28;20223;-77
2022/08/10 03:58:57;;;;;;;2.77;2.57;;;;;;;;;;5046771;28;20226;-76
2022/08/10 04:01:23;;;;;;;5.50;2.97;;;;;;;;;;5052060;28;20298;-76
2022/08/10 04:03:48;;;;;;;4.70;3.28;;;;;;;;;;5077313;28;20230;-77
2022/08/10 04:06:16;;;;;;;4.53;2.72;;;;;;;;;;5043224;28;20233;-77
2022/08/10 04:08:46;;;;;;;2.92;2.47;;;;;;;;;;5034709;28;20653;-76
2022/08/10 04:11:14;;;;;;;3.22;2.90;;;;;;;;;;5058829;28;20859;-76
2022/08/10 04:13:40;;;;;;;3.13;2.78;;;;;;;;;;5043271;28;20310;-76
2022/08/10 04:16:08;;;;;;;3.80;3.10;;;;;;;;;;5048718;28;20221;-77
2022/08/10 04:18:33;;;;;;;3.30;3.10;;;;;;;;;;5052550;28;20227;-77
2022/08/10 04:21:19;;;;;;;3.50;3.20;;;;;;;;;;5048909;28;20229;-77
2022/08/10 04:23:48;;;;;;;5.00;2.95;;;;;;;;;;5039896;28;20223;-77
2022/08/10 04:26:16;;;;;;;3.63;2.78;;;;;;;;;;5025273;28;20234;-76
2022/08/10 04:28:47;;;;;;;3.58;3.28;;;;;;;;;;5047353;28;20340;-77
2022/08/10 04:31:14;;;;;;;3.63;3.30;;;;;;;;;;5064314;28;20226;-76
2022/08/10 04:33:44;;;;;;;4.50;3.33;;;;;;;;;;5052845;28;20267;-77
2022/08/10 04:36:12;;;;;;;3.42;3.13;;;;;;;;;;5047927;28;20218;-76
2022/08/10 04:38:40;;;;;;;3.33;2.90;;;;;;;;;;5031428;28;20244;-77
2022/08/10 04:41:10;;;;;;;3.17;2.97;;;;;;;;;;5045396;28;20690;-76
2022/08/10 04:43:36;;;;;;;3.45;2.63;;;;;;;;;;5067329;28;20229;-77
2022/08/10 04:46:06;;;;;;;2.90;2.70;;;;;;;;;;5058309;28;20230;-76
2022/08/10 04:48:34;;;;;;;3.30;3.00;;;;;;;;;;5043710;28;20226;-77
2022/08/10 04:50:59;;;;;;;3.13;2.90;;;;;;;;;;5058882;28;20217;-76
2022/08/10 04:53:27;;;;;;;3.28;2.97;;;;;;;;;;5048811;28;20580;-77
2022/08/10 04:55:53;;;;;;;3.25;2.95;;;;;;;;;;5044935;28;20253;-77
2022/08/10 04:58:21;;;;;;;3.25;3.00;;;;;;;;;;5045487;28;20241;-77
2022/08/10 05:00:47;;;;;;;3.33;2.65;;;;;;;;;;5047929;28;20638;-77
2022/08/10 05:03:12;;;;;;;4.10;2.67;;;;;;;;;;5042095;28;20225;-77
2022/08/10 05:05:41;;;;;;;3.17;2.90;;;;;;;;;;5064682;28;20222;-76
2022/08/10 05:08:09;;;;;;;2.83;2.63;;;;;;;;;;5065945;28;20218;-77
2022/08/10 05:10:34;;;;;;;3.10;2.80;;;;;;;;;;5067097;28;20698;-77
2022/08/10 05:13:00;;;;;;;2.83;2.63;;;;;;;;;;5057380;28;20218;-76
2022/08/10 05:15:26;;;;;;;3.63;2.83;;;;;;;;;;5020097;28;20233;-76
2022/08/10 05:17:54;;;;;;;3.42;2.53;;;;;;;;;;5027714;28;20304;-77
2022/08/10 05:20:22;;;;;;;4.65;2.90;;;;;;;;;;5066597;28;20241;-77
2022/08/10 05:22:47;;;;;;;2.88;2.67;;;;;;;;;;5022358;28;20222;-77
2022/08/10 05:25:16;;;;;;;3.38;3.00;;;;;;;;;;5061286;28;20210;-76
2022/08/10 05:27:42;;;;;;;3.08;2.78;;;;;;;;;;5050136;28;20234;-76
2022/08/10 05:30:12;;;;;;;6.40;2.70;;;;;;;;;;5031543;28;20230;-76
2022/08/10 05:32:38;;;;;;;2.58;2.30;;;;;;;;;;5040471;28;20240;-76
2022/08/10 05:35:06;;;;;;;3.78;2.33;;;;;;;;;;5047063;28;20746;-76
2022/08/10 05:37:34;;;;;;;2.83;2.50;;;;;;;;;;5048372;28;21143;-77
2022/08/10 05:40:01;;;;;;;2.55;2.35;;;;;;;;;;5045956;28;20305;-76
2022/08/10 05:42:28;;;;;;;2.58;2.22;;;;;;;;;;5050124;28;20229;-77
2022/08/10 05:44:54;;;;;;;2.90;2.30;;;;;;;;;;5067949;28;20633;-76
2022/08/10 05:47:23;;;;;;;3.03;2.42;;;;;;;;;;5044365;28;20238;-76
2022/08/10 05:49:55;;;;;;;3.33;2.47;;;;;;;;;;5042146;28;20221;-76
2022/08/10 05:52:22;;;;;;;4.25;2.80;;;;;;;;;;5048461;28;20827;-76
2022/08/10 05:54:51;;;;;;;3.00;2.40;;;;;;;;;;5046742;28;20228;-76
2022/08/10 05:57:19;;;;;;;2.75;2.55;;;;;;;;;;5041154;28;20220;-77
2022/08/10 05:59:46;;;;;;;3.47;2.75;;;;;;;;;;5031956;28;20230;-77
2022/08/10 06:02:18;;;;;;;2.47;2.13;;;;;;;;;;5023404;28;20240;-76
2022/08/10 06:04:43;;;;;;;2.10;2.00;;;;;;;;;;5049500;28;20230;-76
2022/08/10 06:07:09;;;;;;;4.10;2.55;;;;;;;;;;5028142;28;20235;-76
2022/08/10 06:09:35;;;;;;;3.17;2.40;;;;;;;;;;5042577;28;20248;-77
2022/08/10 06:12:01;;;;;;;4.28;2.17;;;;;;;;;;5055071;28;20213;-76
2022/08/10 06:17:12;;;;;;;5.47;2.03;;;;;;;;;;5049280;28;20283;-77
2022/08/10 06:19:40;;;;;;;2.30;1.77;;;;;;;;;;5028502;28;20700;-77
2022/08/10 06:22:06;;;;;;;8.13;2.10;;;;;;;;;;5031483;28;20249;-76
2022/08/10 06:24:35;;;;;;;2.38;1.90;;;;;;;;;;5063642;28;20325;-77
2022/08/10 06:27:07;;;;;;;4.15;2.05;;;;;;;;;;5045181;28;20261;-77
2022/08/10 06:29:36;;;;;;;3.70;2.05;;;;;;;;;;5041440;28;20249;-77
2022/08/10 06:32:05;;;;;;;3.38;1.90;;;;;;;;;;5066826;28;20226;-76
2022/08/10 06:34:35;;;;;;;6.40;2.40;;;;;;;;;;5045663;28;20324;-77
2022/08/10 06:37:06;;;;;;;2.45;1.92;;;;;;;;;;5034969;28;20255;-77
2022/08/10 06:39:32;;;;;;;2.35;1.52;;;;;;;;;;5027777;28;20656;-77
2022/08/10 06:42:15;;;;;;;2.67;1.80;;;;;;;;;;5046739;28;20298;-76
2022/08/10 06:44:47;;;;;;;3.92;1.50;;;;;;;;;;5061834;28;20259;-76
2022/08/10 06:47:13;;;;;;;2.25;1.50;;;;;;;;;;5076880;28;20314;-77
2022/08/10 06:49:41;;;;;;;2.95;1.77;;;;;;;;;;5033680;28;20241;-77
2022/08/10 06:52:12;;;;;;;1.92;1.70;;;;;;;;;;5058817;28;20363;-76
2022/08/10 06:54:42;;;;;;;4.35;1.50;;;;;;;;;;5048097;28;20252;-76
2022/08/10 06:57:15;;;;;;;2.47;1.90;;;;;;;;;;5051302;28;20222;-77
2022/08/10 06:59:46;;;;;;;4.30;1.70;;;;;;;;;;5037411;28;20723;-77
2022/08/10 07:02:26;;;;;;;2.53;1.40;;;;;;;;;;5056634;28;20588;-76
2022/08/10 07:05:00;;;;;;;2.58;1.80;;;;;;;;;;5039121;28;20271;-77
2022/08/10 07:07:29;;;;;;;1.42;1.33;;;;;;;;;;5037250;28;20218;-77
2022/08/10 07:09:57;;;;;;;1.92;1.70;;;;;;;;;;5046668;28;20245;-77
2022/08/10 07:12:24;;;;;;;2.83;1.88;;;;;;;;;;5051060;28;20218;-77
2022/08/10 07:14:50;;;;;;;3.35;1.83;;;;;;;;;;5045840;28;20253;-76
2022/08/10 07:17:21;;;;;;;2.00;1.73;;;;;;;;;;5030478;28;20210;-76
2022/08/10 07:20:01;;;;;;;3.25;1.80;;;;;;;;;;5063963;28;20573;-76
2022/08/10 07:22:28;;;;;;;3.40;1.80;;;;;;;;;;5036035;28;20217;-75
2022/08/10 07:24:54;;;;;;;2.20;1.50;;;;;;;;;;5050495;28;20231;-76
2022/08/10 07:27:23;;;;;;;2.90;1.58;;;;;;;;;;5049282;28;20780;-76
2022/08/10 07:29:54;;;;;;;2.20;1.70;;;;;;;;;;5048478;28;20719;-76
2022/08/10 07:32:21;;;;;;;3.13;1.80;;;;;;;;;;5044267;28;20280;-76
2022/08/10 07:34:47;;;;;;;3.08;1.63;;;;;;;;;;5031960;28;20610;-76
2022/08/10 07:37:12;;;;;;;2.95;1.50;;;;;;;;;;5066878;28;20719;-76
2022/08/10 07:39:47;;;;;;;2.88;1.88;;;;;;;;;;5024981;28;20249;-76
2022/08/10 07:42:14;;;;;;;2.67;1.70;;;;;;;;;;5047726;28;20277;-76
2022/08/10 07:44:44;;;;;;;3.15;1.70;;;;;;;;;;5074656;28;20663;-76
2022/08/10 07:47:14;;;;;;;4.15;1.70;;;;;;;;;;5071530;28;20829;-76
2022/08/10 07:49:42;;;;;;;1.95;1.40;;;;;;;;;;5062479;28;20237;-76
2022/08/10 07:52:09;;;;;;;3.28;1.80;;;;;;;;;;5037949;28;20226;-76
2022/08/10 07:54:44;;;;;;;2.90;1.85;;;;;;;;;;5052697;28;20220;-76
2022/08/10 07:57:31;;;;;;;3.80;1.60;;;;;;;;;;5050129;28;20702;-76
2022/08/10 08:00:07;;;;;;;1.95;1.27;;;;;;;;;;5074270;28;20702;-76
2022/08/10 08:03:06;;;;;;;3.13;1.88;;;;;;;;;;5053096;28;20215;-76
2022/08/10 08:05:34;;;;;;;2.92;1.20;;;;;;;;;;5047631;28;20317;-76
2022/08/10 08:07:59;;;;;;;3.50;1.20;;;;;;;;;;5042643;28;20226;-76
2022/08/10 08:10:28;;;;;;;1.63;1.40;;;;;;;;;;5043764;28;20219;-76
2022/08/10 08:13:00;;;;;;;2.15;1.50;;;;;;;;;;5058498;28;20217;-76
2022/08/10 08:15:25;;;;;;;4.20;1.40;;;;;;;;;;5027771;28;20879;-76
2022/08/10 08:17:51;;;;;;;1.25;1.15;;;;;;;;;;5062551;28;20333;-76
2022/08/10 08:20:19;;;;;;;2.30;1.20;;;;;;;;;;5055656;28;20253;-76
2022/08/10 08:22:50;;;;;;;2.15;1.23;;;;;;;;;;5061522;28;20210;-76
2022/08/10 08:25:18;;;;;;;1.45;1.23;;;;;;;;;;5044197;28;20743;-76
2022/08/10 08:27:51;;;;;;;1.25;1.13;;;;;;;;;;5055321;28;20298;-76
2022/08/10 08:30:24;;;;;;;5.95;1.20;;;;;;;;;;5048624;28;20315;-76
2022/08/10 08:32:50;;;;;;;1.80;1.30;;;;;;;;;;5062722;28;20222;-76
2022/08/10 08:35:18;;;;;;;3.97;1.33;;;;;;;;;;5025152;28;20361;-76
2022/08/10 08:37:45;;;;;;;1.63;1.27;;;;;;;;;;5038643;28;20223;-76
2022/08/10 08:40:22;;;;;;;1.83;1.27;;;;;;;;;;5065198;28;20568;-76
2022/08/10 08:43:29;;;;;;;3.38;1.48;;;;;;;;;;5083801;28;20279;-76
2022/08/10 08:46:27;;;;;;;2.03;1.10;;;;;;;;;;5077560;28;20230;-76
2022/08/10 08:49:17;;;;;;;2.13;1.27;;;;;;;;;;5078419;28;20329;-76
2022/08/10 08:52:05;;;;;;;3.58;1.48;;;;;;;;;;5057616;28;20233;-76
2022/08/10 08:55:05;;;;;;;1.45;1.30;;;;;;;;;;5077176;28;20241;-75
2022/08/10 08:57:55;;;;;;;1.40;1.20;;;;;;;;;;5077240;28;20225;-75
2022/08/10 09:00:36;;;;;;;1.58;1.27;;;;;;;;;;5076771;28;20321;-76
2022/08/10 09:03:20;;;;;;;5.07;1.50;;;;;;;;;;5063415;28;20307;-75
2022/08/10 09:06:13;;;;;;;1.30;1.20;;;;;;;;;;5060302;28;20720;-77
2022/08/10 09:09:03;;;;;;;1.85;1.20;;;;;;;;;;5044039;28;20253;-76
2022/08/10 09:11:48;;;;;;;3.13;1.10;;;;;;;;;;5071700;28;20679;-77
2022/08/10 09:14:16;;;;;;;2.88;1.15;;;;;;;;;;5067857;28;20225;-76
2022/08/10 09:17:20;;;;;;;1.58;1.20;;;;;;;;;;5063912;28;20218;-76
2022/08/10 09:19:55;;;;;;;1.42;1.20;;;;;;;;;;5033211;28;20226;-76
2022/08/10 09:22:37;;;;;;;1.52;1.40;;;;;;;;;;5059858;28;20725;-76
2022/08/10 09:25:21;;;;;;;1.85;1.25;;;;;;;;;;5048907;28;20605;-76
2022/08/10 09:27:58;;;;;;;3.85;1.50;;;;;;;;;;5044199;28;20222;-76
2022/08/10 09:30:40;;;;;;;1.92;1.17;;;;;;;;;;5057705;28;20321;-76
2022/08/10 09:33:17;;;;;;;1.30;1.10;;;;;;;;;;5071767;28;20600;-75
2022/08/10 09:36:29;;;;;;;1.88;1.20;;;;;;;;;;5033475;28;20299;-76
2022/08/10 09:39:11;;;;;;;1.40;1.20;;;;;;;;;;5030781;28;20222;-76
2022/08/10 09:42:13;;;;;;;1.45;1.30;;;;;;;;;;5066914;28;20226;-76
2022/08/10 09:44:44;;;;;;;1.77;1.17;;;;;;;;;;5068608;28;20218;-76
2022/08/10 09:47:10;;;;;;;2.38;0.98;;;;;;;;;;5064018;28;20238;-76
2022/08/10 09:49:54;;;;;;;1.90;1.27;;;;;;;;;;5074545;28;20221;-76
2022/08/10 09:52:50;;;;;;;5.15;1.30;;;;;;;;;;5065251;28;20232;-75
2022/08/10 09:55:50;;;;;;;1.20;1.10;;;;;;;;;;5074324;28;20263;-74
2022/08/10 09:58:33;;;;;;;1.75;1.10;;;;;;;;;;5066900;28;20213;-75
2022/08/10 10:01:19;;;;;;;1.33;1.20;;;;;;;;;;5075254;28;20225;-75
2022/08/10 10:03:58;;;;;;;4.15;1.15;;;;;;;;;;5068018;28;20225;-75
2022/08/10 10:06:38;;;;;;;1.25;1.15;;;;;;;;;;5073520;28;20229;-75
2022/08/10 10:09:31;;;;;;;2.55;1.20;;;;;;;;;;5045783;28;20692;-76
2022/08/10 10:12:10;;;;;;;2.20;1.10;;;;;;;;;;5076233;28;20682;-75
2022/08/10 10:18:03;;;;;;;2.30;1.30;;;;;;;;;;5082400;28;20308;-75
2022/08/10 10:20:34;;;;;;;8.15;1.40;;;;;;;;;;5076807;28;20234;-76
2022/08/10 10:23:22;;;;;;;5.28;1.50;;;;;;;;;;5061067;28;20225;-76
2022/08/10 10:26:10;;;;;;;2.05;1.08;;;;;;;;;;5057569;28;20218;-74
2022/08/10 10:28:59;;;;;;;2.17;1.20;;;;;;;;;;5087356;28;20324;-74
2022/08/10 10:31:42;;;;;;;1.60;1.30;;;;;;;;;;5085950;28;20217;-76
2022/08/10 10:34:29;;;;;;;1.38;1.15;;;;;;;;;;5061243;28;20226;-76
2022/08/10 10:36:54;;;;;;;1.70;1.27;;;;;;;;;;5042249;28;20222;-76
2022/08/10 10:39:22;;;;;;;3.90;1.20;;;;;;;;;;5041800;28;20233;-75
2022/08/10 10:41:53;;;;;;;3.38;1.25;;;;;;;;;;5045233;28;20222;-76
2022/08/10 10:44:30;;;;;;;1.50;1.20;;;;;;;;;;5058391;28;20222;-75
2022/08/10 10:47:36;;;;;;;4.35;1.08;;;;;;;;;;5056667;28;20233;-75
2022/08/10 10:50:25;;;;;;;1.08;0.93;;;;;;;;;;5067603;28;20223;-77
2022/08/10 10:52:56;;;;;;;2.30;1.20;;;;;;;;;;5086032;28;20296;-73
2022/08/10 10:55:45;;;;;;;2.58;1.05;;;;;;;;;;5075603;28;20249;-76
2022/08/10 10:58:21;;;;;;;1.98;1.30;;;;;;;;;;5061607;28;20654;-76
2022/08/10 11:01:23;;;;;;;3.08;1.10;;;;;;;;;;5085087;28;20309;-75
2022/08/10 11:03:51;;;;;;;2.95;1.17;;;;;;;;;;5070867;28;20218;-76
2022/08/10 11:06:23;;;;;;;1.38;1.00;;;;;;;;;;5087031;28;20313;-75
2022/08/10 11:08:56;;;;;;;1.55;1.00;;;;;;;;;;5073855;28;20230;-76
2022/08/10 11:11:26;;;;;;;2.33;1.20;;;;;;;;;;5042748;28;20305;-75
2022/08/10 11:14:01;;;;;;;1.20;1.00;;;;;;;;;;5050776;28;20213;-77
2022/08/10 11:16:43;;;;;;;1.23;0.90;;;;;;;;;;5068856;28;20316;-76
2022/08/10 11:19:18;;;;;;;2.05;1.00;;;;;;;;;;5076240;28;20673;-75
2022/08/10 11:22:02;;;;;;;2.28;1.30;;;;;;;;;;5041237;28;20229;-74
2022/08/10 11:24:45;;;;;;;3.65;1.27;;;;;;;;;;5071081;28;20233;-76
2022/08/10 11:27:35;;;;;;;1.23;1.10;;;;;;;;;;5061981;28;20223;-76
2022/08/10 11:30:07;;;;;;;2.17;1.00;;;;;;;;;;5059454;28;20222;-75
2022/08/10 11:32:53;;;;;;;2.88;1.30;;;;;;;;;;5045122;28;20240;-76
2022/08/10 11:35:23;;;;;;;1.80;1.20;;;;;;;;;;5077970;28;20237;-76
2022/08/10 11:37:58;;;;;;;2.38;1.25;;;;;;;;;;5063565;28;20227;-76
2022/08/10 11:40:45;;;;;;;2.50;1.05;;;;;;;;;;5077711;28;20412;-76
2022/08/10 11:43:30;;;;;;;3.20;1.17;;;;;;;;;;5063021;28;20225;-75
2022/08/10 11:46:14;;;;;;;3.28;1.20;;;;;;;;;;5076637;28;20980;-76
2022/08/10 11:48:44;;;;;;;1.77;1.50;;;;;;;;;;5069068;28;20708;-73
2022/08/10 11:51:18;;;;;;;1.63;1.17;;;;;;;;;;5059639;28;20289;-74
2022/08/10 11:53:59;;;;;;;1.50;1.10;;;;;;;;;;5029189;28;20212;-73
2022/08/10 11:56:48;;;;;;;3.70;1.60;;;;;;;;;;5059048;28;20627;-75
2022/08/10 12:02:00;;;;;;;3.67;1.20;;;;;;;;;;5046422;28;20215;-76
2022/08/10 12:04:28;;;;;;;1.40;1.27;;;;;;;;;;5035031;28;20324;-76
2022/08/10 12:06:56;;;;;;;2.55;1.17;;;;;;;;;;5043238;28;20611;-76
2022/08/10 12:09:25;;;;;;;2.92;1.30;;;;;;;;;;5055873;28;22339;-76
2022/08/10 12:11:53;;;;;;;1.30;1.05;;;;;;;;;;5063696;28;20230;-75
2022/08/10 12:14:23;;;;;;;2.92;1.25;;;;;;;;;;5044460;28;20483;-76
2022/08/10 12:16:58;;;;;;;1.20;1.10;;;;;;;;;;5067202;28;20225;-74
2022/08/10 12:19:39;;;;;;;2.80;1.17;;;;;;;;;;5050906;28;20226;-73
2022/08/10 12:22:06;;;;;;;2.47;1.25;;;;;;;;;;5066535;28;20226;-74
2022/08/10 12:25:00;;;;;;;1.55;1.20;;;;;;;;;;5045404;28;20218;-75
2022/08/10 12:27:32;;;;;;;2.28;1.30;;;;;;;;;;5058112;28;20223;-75
2022/08/10 12:30:02;;;;;;;2.63;1.27;;;;;;;;;;5070322;28;20636;-74
2022/08/10 12:32:38;;;;;;;2.67;1.23;;;;;;;;;;5057323;28;20316;-75
2022/08/10 12:35:44;;;;;;;4.30;1.23;;;;;;;;;;5074969;28;20605;-75
2022/08/10 12:38:35;;;;;;;2.03;1.10;;;;;;;;;;5032634;28;20222;-74
2022/08/10 12:41:06;;;;;;;2.30;1.13;;;;;;;;;;5061131;28;20230;-75
2022/08/10 12:43:34;;;;;;;2.58;1.17;;;;;;;;;;5064301;28;20309;-76
2022/08/10 12:46:14;;;;;;;2.13;1.20;;;;;;;;;;5061864;28;20604;-75
2022/08/10 12:49:10;;;;;;;2.22;1.23;;;;;;;;;;5074423;28;20322;-75
2022/08/10 12:51:38;;;;;;;2.63;1.23;;;;;;;;;;5075875;28;20226;-75
2022/08/10 12:54:12;;;;;;;2.47;1.40;;;;;;;;;;5062653;28;20233;-75
2022/08/10 12:56:48;;;;;;;0.95;0.95;;;;;;;;;;5074231;28;20226;-75
2022/08/10 12:59:14;;;;;;;3.70;1.05;;;;;;;;;;5034659;28;20298;-75
2022/08/10 13:01:43;;;;;;;1.30;1.15;;;;;;;;;;5028061;28;20226;-75
2022/08/10 13:04:13;;;;;;;1.38;1.00;;;;;;;;;;5044827;28;20224;-75
2022/08/10 13:06:46;;;;;;;1.35;1.00;;;;;;;;;;5062931;28;20276;-75
2022/08/10 13:09:14;;;;;;;2.50;0.90;;;;;;;;;;5058622;28;20221;-75
2022/08/10 13:11:43;;;;;;;1.30;1.00;;;;;;;;;;5065240;28;20590;-76
2022/08/10 13:14:18;;;;;;;1.52;0.90;;;;;;;;;;5057891;28;20218;-75
2022/08/10 13:16:45;;;;;;;3.35;1.30;;;;;;;;;;5055542;28;20214;-77
2022/08/10 13:19:14;;;;;;;2.95;1.27;;;;;;;;;;5061104;28;20229;-77
2022/08/10 13:21:42;;;;;;;1.90;1.00;;;;;;;;;;5081678;28;20394;-76
2022/08/10 13:24:17;;;;;;;5.65;1.30;;;;;;;;;;5059225;28;20213;-76
2022/08/10 13:26:48;;;;;;;1.50;0.90;;;;;;;;;;5061186;28;20751;-75
2022/08/10 13:29:16;;;;;;;1.23;1.13;;;;;;;;;;5067422;28;20218;-76
2022/08/10 13:31:45;;;;;;;1.40;1.10;;;;;;;;;;5054082;28;20810;-76
2022/08/10 13:34:23;;;;;;;1.10;0.90;;;;;;;;;;5053109;28;20635;-76
2022/08/10 13:36:54;;;;;;;1.70;1.23;;;;;;;;;;5050113;28;20222;-75
2022/08/10 13:39:23;;;;;;;2.03;1.25;;;;;;;;;;5045280;28;20218;-75
2022/08/10 13:41:52;;;;;;;2.35;1.05;;;;;;;;;;5053753;28;20258;-75
2022/08/10 13:44:32;;;;;;;1.42;1.20;;;;;;;;;;5042286;28;20237;-76
2022/08/10 13:46:58;;;;;;;1.52;1.20;;;;;;;;;;5058371;28;20245;-75
2022/08/10 13:49:24;;;;;;;2.85;1.30;;;;;;;;;;5064361;28;20214;-74
2022/08/10 13:51:49;;;;;;;1.92;1.15;;;;;;;;;;5054745;28;20218;-75
2022/08/10 13:54:17;;;;;;;1.45;1.08;;;;;;;;;;5052983;28;20834;-73
2022/08/10 13:56:46;;;;;;;4.53;1.40;;;;;;;;;;5053298;28;20233;-74
2022/08/10 13:59:14;;;;;;;4.13;1.20;;;;;;;;;;5071192;28;20221;-76
2022/08/10 14:01:41;;;;;;;3.00;1.13;;;;;;;;;;5047214;28;20233;-75
2022/08/10 14:04:09;;;;;;;1.45;1.05;;;;;;;;;;5060001;28;20233;-75
2022/08/10 14:06:37;;;;;;;3.15;1.02;;;;;;;;;;5074866;28;20226;-75
2022/08/10 14:09:10;;;;;;;1.75;1.20;;;;;;;;;;5073770;28;20708;-74
2022/08/10 14:11:36;;;;;;;2.22;1.20;;;;;;;;;;5059027;28;20225;-74
2022/08/10 14:14:07;;;;;;;1.02;0.90;;;;;;;;;;5056771;28;20214;-74
2022/08/10 14:16:32;;;;;;;1.20;1.00;;;;;;;;;;5062878;28;20361;-76
2022/08/10 14:19:04;;;;;;;3.53;1.40;;;;;;;;;;5045966;28;20230;-75
2022/08/10 14:21:34;;;;;;;2.55;1.20;;;;;;;;;;5065195;28;20222;-75
2022/08/10 14:23:59;;;;;;;1.33;1.00;;;;;;;;;;5044888;28;20236;-75
2022/08/10 14:26:27;;;;;;;2.95;1.15;;;;;;;;;;5053683;28;20728;-74
2022/08/10 14:29:13;;;;;;;2.05;1.17;;;;;;;;;;5048067;28;20669;-74
2022/08/10 14:31:39;;;;;;;3.90;1.10;;;;;;;;;;5074593;28;20261;-74
2022/08/10 14:34:07;;;;;;;2.65;1.23;;;;;;;;;;5037177;28;20668;-76
2022/08/10 14:36:54;;;;;;;1.52;0.93;;;;;;;;;;5071634;28;20649;-75
2022/08/10 14:39:25;;;;;;;2.22;1.05;;;;;;;;;;5077668;28;20325;-75
2022/08/10 14:41:50;;;;;;;3.50;1.40;;;;;;;;;;5055661;28;20299;-75
2022/08/10 14:44:18;;;;;;;1.13;1.02;;;;;;;;;;5033126;28;20293;-75
2022/08/10 14:46:45;;;;;;;1.40;0.95;;;;;;;;;;5040386;28;20225;-75
2022/08/10 14:49:20;;;;;;;1.13;1.00;;;;;;;;;;5057367;28;20223;-76
2022/08/10 14:51:46;;;;;;;1.55;1.00;;;;;;;;;;5040089;28;20317;-77
2022/08/10 14:54:15;;;;;;;1.30;1.00;;;;;;;;;;5055478;28;20251;-77
2022/08/10 14:56:41;;;;;;;1.60;1.23;;;;;;;;;;5072992;28;20317;-76
2022/08/10 14:59:06;;;;;;;2.30;1.13;;;;;;;;;;5059135;28;20296;-74
2022/08/10 15:01:35;;;;;;;1.15;1.05;;;;;;;;;;5060184;28;20232;-75
2022/08/10 15:04:07;;;;;;;1.73;1.23;;;;;;;;;;5047736;28;20222;-76
2022/08/10 15:06:36;;;;;;;1.45;1.10;;;;;;;;;;5064675;28;20226;-75
2022/08/10 15:09:05;;;;;;;1.10;1.00;;;;;;;;;;5041289;28;20229;-76
2022/08/10 15:11:35;;;;;;;1.38;1.15;;;;;;;;;;5075434;28;20283;-75
2022/08/10 15:14:02;;;;;;;3.38;1.13;;;;;;;;;;5058575;28;20788;-75
2022/08/10 15:16:28;;;;;;;1.25;1.10;;;;;;;;;;5079935;28;20222;-76
2022/08/10 15:18:54;;;;;;;1.45;1.00;;;;;;;;;;5054347;28;20230;-74
2022/08/10 15:21:20;;;;;;;1.25;1.13;;;;;;;;;;5027868;28;20286;-75
2022/08/10 15:23:50;;;;;;;1.45;1.13;;;;;;;;;;5053734;28;20229;-74
2022/08/10 15:26:15;;;;;;;3.85;1.17;;;;;;;;;;5063960;28;20219;-75